Time;durP1;ratioP1;P1;durP2;ratioP2;P2;SDS_P1;SDS_P2;PMS_P1;PMS_P2;Temp;Humidity;BMP_temperature;BMP_pressure;BME280_temperature;BME280_humidity;BME280_pressure;Samples;Min_cycle;Max_cycle;Signal;HPM_P1;HPM_P2
2022/10/18 00:00:52;;;;;;;15.30;6.10;;;;;;;;;;5093982;28;20463;-70
2022/10/18 00:03:18;;;;;;;11.38;6.55;;;;;;;;;;5094423;28;20119;-70
2022/10/18 00:05:43;;;;;;;8.60;6.43;;;;;;;;;;5094282;28;20031;-70
2022/10/18 00:08:09;;;;;;;9.15;6.88;;;;;;;;;;5094345;28;20036;-70
2022/10/18 00:10:34;;;;;;;8.18;6.70;;;;;;;;;;5093776;28;20024;-70
2022/10/18 00:13:00;;;;;;;10.18;6.38;;;;;;;;;;5093768;28;20028;-70
2022/10/18 00:15:26;;;;;;;8.73;6.93;;;;;;;;;;5093819;28;20379;-70
2022/10/18 00:17:51;;;;;;;6.97;6.25;;;;;;;;;;5094612;28;20060;-70
2022/10/18 00:20:17;;;;;;;10.20;6.75;;;;;;;;;;5094505;28;20051;-70
2022/10/18 00:22:43;;;;;;;8.48;7.13;;;;;;;;;;5094143;28;20028;-70
2022/10/18 00:25:08;;;;;;;10.52;7.43;;;;;;;;;;5093878;28;20050;-70
2022/10/18 00:27:34;;;;;;;9.10;7.22;;;;;;;;;;5094025;28;20077;-70
2022/10/18 00:29:59;;;;;;;12.23;6.90;;;;;;;;;;5075907;28;20016;-69
2022/10/18 00:32:25;;;;;;;10.52;7.43;;;;;;;;;;5093872;28;20035;-70
2022/10/18 00:34:51;;;;;;;7.95;7.13;;;;;;;;;;5093723;28;20176;-70
2022/10/18 00:37:17;;;;;;;10.77;7.28;;;;;;;;;;5075779;28;20452;-70
2022/10/18 00:39:43;;;;;;;7.82;6.90;;;;;;;;;;5093885;28;20020;-70
2022/10/18 00:42:18;;;;;;;9.55;7.15;;;;;;;;;;5093760;28;20067;-70
2022/10/18 00:44:43;;;;;;;9.13;7.30;;;;;;;;;;5076244;28;20527;-71
2022/10/18 00:47:10;;;;;;;7.95;6.68;;;;;;;;;;5093497;28;20071;-70
2022/10/18 00:49:38;;;;;;;9.10;7.13;;;;;;;;;;5096183;28;20059;-70
2022/10/18 00:52:08;;;;;;;10.20;7.35;;;;;;;;;;5098081;28;20080;-71
2022/10/18 00:54:35;;;;;;;9.88;7.40;;;;;;;;;;5098014;28;20030;-70
2022/10/18 00:57:01;;;;;;;10.07;7.13;;;;;;;;;;5097613;28;20479;-70
2022/10/18 00:59:26;;;;;;;9.77;7.25;;;;;;;;;;5098203;28;20062;-70
2022/10/18 01:01:52;;;;;;;11.35;7.60;;;;;;;;;;5079509;28;20024;-69
2022/10/18 01:04:18;;;;;;;9.25;6.85;;;;;;;;;;5097577;28;20036;-69
2022/10/18 01:06:58;;;;;;;7.82;6.95;;;;;;;;;;5097632;28;20477;-69
2022/10/18 01:09:34;;;;;;;11.03;7.80;;;;;;;;;;5097799;28;20409;-68
2022/10/18 01:11:59;;;;;;;12.43;7.40;;;;;;;;;;5097415;28;20733;-69
2022/10/18 01:14:39;;;;;;;8.77;7.63;;;;;;;;;;5097633;28;20099;-69
2022/10/18 01:17:27;;;;;;;9.30;7.43;;;;;;;;;;5079407;28;20036;-69
2022/10/18 01:19:58;;;;;;;8.90;7.38;;;;;;;;;;5079078;28;20536;-69
2022/10/18 01:22:42;;;;;;;10.70;7.20;;;;;;;;;;5097163;28;20040;-69
2022/10/18 01:25:20;;;;;;;11.05;7.18;;;;;;;;;;5079333;28;20028;-69
2022/10/18 01:27:52;;;;;;;10.20;7.63;;;;;;;;;;5097100;28;20467;-69
2022/10/18 01:30:27;;;;;;;10.90;7.25;;;;;;;;;;5079203;28;20029;-69
2022/10/18 01:32:56;;;;;;;10.82;7.70;;;;;;;;;;5097293;28;20032;-69
2022/10/18 01:35:30;;;;;;;14.02;8.05;;;;;;;;;;5097256;28;20055;-69
2022/10/18 01:37:59;;;;;;;11.30;7.85;;;;;;;;;;5097179;28;20031;-69
2022/10/18 01:40:25;;;;;;;10.25;8.05;;;;;;;;;;5079219;28;20111;-69
2022/10/18 01:42:50;;;;;;;10.30;8.10;;;;;;;;;;5079028;28;20039;-69
2022/10/18 01:45:15;;;;;;;9.63;8.30;;;;;;;;;;5097035;28;20027;-69
2022/10/18 01:47:45;;;;;;;10.35;8.00;;;;;;;;;;5096444;28;20039;-70
2022/10/18 01:50:12;;;;;;;11.97;8.30;;;;;;;;;;5096911;28;20028;-70
2022/10/18 01:52:50;;;;;;;13.35;8.20;;;;;;;;;;5095270;28;20029;-70
2022/10/18 01:55:16;;;;;;;11.52;8.23;;;;;;;;;;5096709;28;20036;-70
2022/10/18 01:57:45;;;;;;;12.57;8.02;;;;;;;;;;5078641;28;20020;-69
2022/10/18 02:00:23;;;;;;;11.63;8.07;;;;;;;;;;5077881;28;20111;-69
2022/10/18 02:02:51;;;;;;;13.25;8.57;;;;;;;;;;5077769;28;20039;-69
2022/10/18 02:05:22;;;;;;;13.07;8.60;;;;;;;;;;5096319;28;20020;-69
2022/10/18 02:07:52;;;;;;;11.15;7.82;;;;;;;;;;5096154;28;20036;-69
2022/10/18 02:10:24;;;;;;;9.95;7.93;;;;;;;;;;5096638;28;20529;-69
2022/10/18 02:12:51;;;;;;;15.23;8.88;;;;;;;;;;5097043;28;20099;-69
2022/10/18 02:15:19;;;;;;;12.13;8.23;;;;;;;;;;5096696;28;20016;-69
2022/10/18 02:17:45;;;;;;;14.77;8.85;;;;;;;;;;5096398;28;20043;-69
2022/10/18 02:20:11;;;;;;;13.13;9.00;;;;;;;;;;5078026;28;20020;-69
2022/10/18 02:22:38;;;;;;;10.98;8.18;;;;;;;;;;5096431;28;20197;-69
2022/10/18 02:25:05;;;;;;;12.98;8.90;;;;;;;;;;5096100;28;20016;-69
2022/10/18 02:27:31;;;;;;;10.90;8.63;;;;;;;;;;5095456;28;20028;-69
2022/10/18 02:29:57;;;;;;;9.90;8.32;;;;;;;;;;5096156;28;20024;-69
2022/10/18 02:32:35;;;;;;;13.27;9.00;;;;;;;;;;5096069;28;20051;-69
2022/10/18 02:35:04;;;;;;;12.73;8.60;;;;;;;;;;5095772;28;20039;-69
2022/10/18 02:37:32;;;;;;;14.60;8.80;;;;;;;;;;5096351;28;20040;-69
2022/10/18 02:39:57;;;;;;;11.18;8.23;;;;;;;;;;5096127;28;20058;-69
2022/10/18 02:42:23;;;;;;;12.20;8.27;;;;;;;;;;5095957;28;20016;-69
2022/10/18 02:44:48;;;;;;;12.43;8.75;;;;;;;;;;5096186;28;20111;-69
2022/10/18 02:47:13;;;;;;;10.95;8.35;;;;;;;;;;5095663;28;20020;-69
2022/10/18 02:49:39;;;;;;;14.10;9.13;;;;;;;;;;5095719;28;20044;-69
2022/10/18 02:52:05;;;;;;;15.43;9.27;;;;;;;;;;5060522;28;20028;-69
2022/10/18 02:54:30;;;;;;;11.75;9.10;;;;;;;;;;5095715;28;20032;-69
2022/10/18 02:56:55;;;;;;;11.68;8.40;;;;;;;;;;5095755;28;20026;-68
2022/10/18 02:59:21;;;;;;;9.75;8.23;;;;;;;;;;5095575;28;20020;-68
2022/10/18 03:01:46;;;;;;;12.93;9.02;;;;;;;;;;5095296;28;20016;-69
2022/10/18 03:04:11;;;;;;;14.63;8.55;;;;;;;;;;5095564;28;20066;-69
2022/10/18 03:06:37;;;;;;;9.90;8.40;;;;;;;;;;5095179;28;20383;-69
2022/10/18 03:09:04;;;;;;;11.90;9.13;;;;;;;;;;5076982;28;20066;-69
2022/10/18 03:11:29;;;;;;;11.05;8.25;;;;;;;;;;5076274;28;20051;-70
2022/10/18 03:13:55;;;;;;;14.35;8.38;;;;;;;;;;5076595;28;20043;-71
2022/10/18 03:16:20;;;;;;;15.02;9.25;;;;;;;;;;5094938;28;20020;-70
2022/10/18 03:18:45;;;;;;;12.48;9.27;;;;;;;;;;5076788;28;20028;-70
2022/10/18 03:21:11;;;;;;;14.30;8.75;;;;;;;;;;5094894;28;20043;-68
2022/10/18 03:23:36;;;;;;;19.20;9.15;;;;;;;;;;5095123;28;20032;-68
2022/10/18 03:26:02;;;;;;;14.93;9.07;;;;;;;;;;5094733;28;20028;-68
2022/10/18 03:28:27;;;;;;;14.38;8.63;;;;;;;;;;5095052;28;20028;-68
2022/10/18 03:30:53;;;;;;;14.05;8.63;;;;;;;;;;5094802;28;20020;-68
2022/10/18 03:33:18;;;;;;;15.88;8.50;;;;;;;;;;5076701;28;20039;-69
2022/10/18 03:35:44;;;;;;;12.98;7.97;;;;;;;;;;5094662;28;20152;-69
2022/10/18 03:38:09;;;;;;;10.70;7.60;;;;;;;;;;5095147;28;20032;-69
2022/10/18 03:40:34;;;;;;;9.25;6.88;;;;;;;;;;5094770;28;20020;-69
2022/10/18 03:43:00;;;;;;;13.15;7.88;;;;;;;;;;5094805;28;20028;-68
2022/10/18 03:45:25;;;;;;;12.23;7.78;;;;;;;;;;5094539;28;20052;-69
2022/10/18 03:47:51;;;;;;;14.63;8.38;;;;;;;;;;5080441;28;20052;-69
2022/10/18 03:50:17;;;;;;;11.18;7.85;;;;;;;;;;5074566;28;20030;-69
2022/10/18 03:52:42;;;;;;;10.45;8.15;;;;;;;;;;5074060;28;20032;-69
2022/10/18 03:55:08;;;;;;;9.90;7.47;;;;;;;;;;5074625;28;20027;-69
2022/10/18 03:57:33;;;;;;;11.15;7.82;;;;;;;;;;5055991;28;20032;-69
2022/10/18 03:59:58;;;;;;;7.88;6.65;;;;;;;;;;5074211;28;20021;-69
2022/10/18 04:02:25;;;;;;;8.40;6.63;;;;;;;;;;5073519;28;20032;-70
2022/10/18 04:04:51;;;;;;;11.93;7.00;;;;;;;;;;5074202;28;20024;-69
2022/10/18 04:07:17;;;;;;;7.78;6.75;;;;;;;;;;5074036;28;20452;-69
2022/10/18 04:09:42;;;;;;;10.27;7.40;;;;;;;;;;5073643;28;20028;-69
2022/10/18 04:12:07;;;;;;;8.57;7.05;;;;;;;;;;5072814;28;20650;-69
2022/10/18 04:14:33;;;;;;;10.88;7.32;;;;;;;;;;5072658;28;20017;-69
2022/10/18 04:16:58;;;;;;;9.98;7.60;;;;;;;;;;5072108;28;20024;-69
2022/10/18 04:19:23;;;;;;;10.05;7.43;;;;;;;;;;5055645;28;20024;-69
2022/10/18 04:21:49;;;;;;;11.68;7.15;;;;;;;;;;5055408;28;20058;-68
2022/10/18 04:24:17;;;;;;;9.40;6.93;;;;;;;;;;5072589;28;20029;-68
2022/10/18 04:26:43;;;;;;;8.65;6.90;;;;;;;;;;5073464;28;20037;-68
2022/10/18 04:29:08;;;;;;;10.63;7.00;;;;;;;;;;5054584;28;20453;-69
2022/10/18 04:31:34;;;;;;;8.40;6.88;;;;;;;;;;5072289;28;20039;-70
2022/10/18 04:33:59;;;;;;;11.15;7.25;;;;;;;;;;5073231;28;20704;-70
2022/10/18 04:36:24;;;;;;;9.68;6.75;;;;;;;;;;5073109;28;20020;-71
2022/10/18 04:38:50;;;;;;;10.05;7.32;;;;;;;;;;5054971;28;20350;-71
2022/10/18 04:41:15;;;;;;;9.65;6.72;;;;;;;;;;5072350;28;20036;-70
2022/10/18 04:43:40;;;;;;;10.52;6.97;;;;;;;;;;5054816;28;20036;-71
2022/10/18 04:46:06;;;;;;;6.63;5.90;;;;;;;;;;5072675;28;20055;-71
2022/10/18 04:48:31;;;;;;;9.85;6.40;;;;;;;;;;5050816;28;20476;-71
2022/10/18 04:50:57;;;;;;;9.30;6.53;;;;;;;;;;5052606;28;20056;-71
2022/10/18 04:53:22;;;;;;;12.32;7.00;;;;;;;;;;5052473;28;20028;-70
2022/10/18 04:55:48;;;;;;;8.25;6.75;;;;;;;;;;5052321;28;20035;-70
2022/10/18 04:58:14;;;;;;;9.75;6.63;;;;;;;;;;5034826;28;20021;-70
2022/10/18 05:00:40;;;;;;;11.65;7.22;;;;;;;;;;5034545;28;20041;-70
2022/10/18 05:03:05;;;;;;;9.70;7.00;;;;;;;;;;5052652;28;20029;-69
2022/10/18 05:05:31;;;;;;;9.13;6.82;;;;;;;;;;5052616;28;20568;-69
2022/10/18 05:07:56;;;;;;;9.05;7.15;;;;;;;;;;5052782;28;20111;-71
2022/10/18 05:10:22;;;;;;;8.88;6.28;;;;;;;;;;5052314;28;20404;-69
2022/10/18 05:12:48;;;;;;;7.65;6.72;;;;;;;;;;5053061;28;20032;-70
2022/10/18 05:15:13;;;;;;;11.52;7.00;;;;;;;;;;5052893;28;20037;-70
2022/10/18 05:17:39;;;;;;;11.02;7.30;;;;;;;;;;5051529;28;20024;-70
2022/10/18 05:20:04;;;;;;;11.18;7.15;;;;;;;;;;5052291;28;20071;-68
2022/10/18 05:22:29;;;;;;;12.38;8.95;;;;;;;;;;5052333;28;20469;-66
2022/10/18 05:24:55;;;;;;;35.33;20.45;;;;;;;;;;5051916;28;20029;-67
2022/10/18 05:27:20;;;;;;;36.83;18.98;;;;;;;;;;5051922;28;20036;-67
2022/10/18 05:29:45;;;;;;;27.10;18.13;;;;;;;;;;5051997;28;20485;-67
2022/10/18 05:32:11;;;;;;;25.83;12.30;;;;;;;;;;5051960;28;20021;-67
2022/10/18 05:34:36;;;;;;;12.80;9.30;;;;;;;;;;5033671;28;20465;-67
2022/10/18 05:37:02;;;;;;;14.88;8.85;;;;;;;;;;5052864;28;20017;-67
2022/10/18 05:39:27;;;;;;;11.45;7.85;;;;;;;;;;5054374;28;20021;-67
2022/10/18 05:41:52;;;;;;;15.32;9.32;;;;;;;;;;5055516;28;20028;-67
2022/10/18 05:44:18;;;;;;;22.92;13.23;;;;;;;;;;5055343;28;20468;-67
2022/10/18 05:46:43;;;;;;;19.77;12.43;;;;;;;;;;5057320;28;20025;-67
2022/10/18 05:49:12;;;;;;;18.33;11.10;;;;;;;;;;5075358;28;20032;-67
2022/10/18 05:51:37;;;;;;;19.98;12.00;;;;;;;;;;5040696;28;20060;-66
2022/10/18 05:54:03;;;;;;;27.95;15.05;;;;;;;;;;5075280;28;20032;-67
2022/10/18 05:56:28;;;;;;;24.25;15.63;;;;;;;;;;5075325;28;20074;-67
2022/10/18 05:58:53;;;;;;;17.38;11.52;;;;;;;;;;5059159;28;20028;-67
2022/10/18 06:01:19;;;;;;;17.38;9.05;;;;;;;;;;5058272;28;20032;-67
2022/10/18 06:03:45;;;;;;;16.38;9.45;;;;;;;;;;5076160;28;20043;-67
2022/10/18 06:06:11;;;;;;;16.23;10.23;;;;;;;;;;5076074;28;20032;-67
2022/10/18 06:08:37;;;;;;;18.50;10.15;;;;;;;;;;5076365;28;20048;-67
2022/10/18 06:11:06;;;;;;;16.63;9.75;;;;;;;;;;5076296;28;20016;-67
2022/10/18 06:13:32;;;;;;;16.73;10.60;;;;;;;;;;5076310;28;20024;-67
2022/10/18 06:15:57;;;;;;;16.10;9.27;;;;;;;;;;5075950;28;20021;-67
2022/10/18 06:18:23;;;;;;;11.65;8.48;;;;;;;;;;5076175;28;20131;-66
2022/10/18 06:20:48;;;;;;;17.52;8.57;;;;;;;;;;5057917;28;20017;-66
2022/10/18 06:23:14;;;;;;;14.93;8.68;;;;;;;;;;5075790;28;20380;-65
2022/10/18 06:25:39;;;;;;;14.07;8.07;;;;;;;;;;5075796;28;20055;-67
2022/10/18 06:28:05;;;;;;;10.23;8.00;;;;;;;;;;5072548;28;20036;-67
2022/10/18 06:30:30;;;;;;;9.20;7.72;;;;;;;;;;5074541;28;20028;-67
2022/10/18 06:32:58;;;;;;;10.20;7.63;;;;;;;;;;5074841;28;20067;-67
2022/10/18 06:35:24;;;;;;;16.48;7.75;;;;;;;;;;5074247;28;20016;-67
2022/10/18 06:37:49;;;;;;;11.50;7.55;;;;;;;;;;5056185;28;20116;-67
2022/10/18 06:40:14;;;;;;;9.45;7.07;;;;;;;;;;5056405;28;20092;-67
2022/10/18 06:42:40;;;;;;;10.07;7.28;;;;;;;;;;5056202;28;20036;-65
2022/10/18 06:45:05;;;;;;;13.00;7.47;;;;;;;;;;5074276;28;20044;-67
2022/10/18 06:47:31;;;;;;;11.20;7.82;;;;;;;;;;5055918;28;20036;-67
2022/10/18 06:49:56;;;;;;;10.73;7.95;;;;;;;;;;5056351;28;20021;-67
2022/10/18 06:52:24;;;;;;;12.98;8.18;;;;;;;;;;5073980;28;20522;-67
2022/10/18 06:54:49;;;;;;;13.48;8.95;;;;;;;;;;5073658;28;20020;-67
2022/10/18 06:57:15;;;;;;;15.05;9.07;;;;;;;;;;5074036;28;20388;-66
2022/10/18 06:59:40;;;;;;;10.40;7.93;;;;;;;;;;5055961;28;20045;-66
2022/10/18 07:02:06;;;;;;;10.32;7.63;;;;;;;;;;5073842;28;20036;-67
2022/10/18 07:04:31;;;;;;;10.38;5.70;;;;;;;;;;5073779;28;20020;-67
2022/10/18 07:06:56;;;;;;;9.10;6.20;;;;;;;;;;5073644;28;20464;-67
2022/10/18 07:09:22;;;;;;;10.00;6.63;;;;;;;;;;5073567;28;20047;-66
2022/10/18 07:11:47;;;;;;;10.52;6.97;;;;;;;;;;5073690;28;20040;-64
2022/10/18 07:14:13;;;;;;;9.98;7.00;;;;;;;;;;5073727;28;20126;-65
2022/10/18 07:16:39;;;;;;;8.85;6.40;;;;;;;;;;5073684;28;20119;-65
2022/10/18 07:19:05;;;;;;;8.90;5.97;;;;;;;;;;5073587;28;20103;-64
2022/10/18 07:21:30;;;;;;;7.55;6.35;;;;;;;;;;5073133;28;20047;-67
2022/10/18 07:23:56;;;;;;;7.25;6.03;;;;;;;;;;5055633;28;20024;-65
2022/10/18 07:26:26;;;;;;;10.02;6.68;;;;;;;;;;5073505;28;20021;-65
2022/10/18 07:28:56;;;;;;;8.15;6.68;;;;;;;;;;5073501;28;20487;-65
2022/10/18 07:31:22;;;;;;;10.55;6.32;;;;;;;;;;5073276;28;20032;-65
2022/10/18 07:33:48;;;;;;;7.85;6.43;;;;;;;;;;5072995;28;20028;-64
2022/10/18 07:36:14;;;;;;;9.00;5.90;;;;;;;;;;5073274;28;20034;-64
2022/10/18 07:38:40;;;;;;;7.90;5.30;;;;;;;;;;5073319;28;20159;-64
2022/10/18 07:41:06;;;;;;;7.68;5.38;;;;;;;;;;5055255;28;20032;-64
2022/10/18 07:43:32;;;;;;;7.10;5.43;;;;;;;;;;5055289;28;20035;-66
2022/10/18 07:45:58;;;;;;;8.93;5.47;;;;;;;;;;5072822;28;20025;-65
2022/10/18 07:48:24;;;;;;;9.40;4.75;;;;;;;;;;5072181;28;20037;-65
2022/10/18 07:50:50;;;;;;;7.97;4.65;;;;;;;;;;5054889;28;20039;-66
2022/10/18 07:53:15;;;;;;;4.40;4.00;;;;;;;;;;5073121;28;20029;-69
2022/10/18 07:55:41;;;;;;;6.75;4.43;;;;;;;;;;5072999;28;20442;-66
2022/10/18 07:58:06;;;;;;;5.95;4.30;;;;;;;;;;5054746;28;20024;-61
2022/10/18 08:00:31;;;;;;;4.93;4.03;;;;;;;;;;5054150;28;20025;-61
2022/10/18 08:02:58;;;;;;;7.18;3.80;;;;;;;;;;5072839;28;20048;-61
2022/10/18 08:05:24;;;;;;;4.68;4.25;;;;;;;;;;5072836;28;20032;-61
2022/10/18 08:07:50;;;;;;;5.20;4.43;;;;;;;;;;5072833;28;20016;-61
2022/10/18 08:10:15;;;;;;;5.57;4.18;;;;;;;;;;5054959;28;20024;-61
2022/10/18 08:12:40;;;;;;;4.95;4.05;;;;;;;;;;5071723;28;20028;-61
2022/10/18 08:15:06;;;;;;;6.45;3.75;;;;;;;;;;5054518;28;20539;-61
2022/10/18 08:17:32;;;;;;;6.75;4.53;;;;;;;;;;5072597;28;20020;-61
2022/10/18 08:19:57;;;;;;;7.50;3.80;;;;;;;;;;5054343;28;20039;-61
2022/10/18 08:22:22;;;;;;;6.05;3.70;;;;;;;;;;5072237;28;20024;-61
2022/10/18 08:24:48;;;;;;;5.47;3.67;;;;;;;;;;5072349;28;20044;-61
2022/10/18 08:27:13;;;;;;;5.68;3.85;;;;;;;;;;5072302;28;20016;-61
2022/10/18 08:29:39;;;;;;;4.45;3.22;;;;;;;;;;5072168;28;20423;-61
2022/10/18 08:32:04;;;;;;;4.20;3.47;;;;;;;;;;5072367;28;20571;-61
2022/10/18 08:34:29;;;;;;;5.25;3.38;;;;;;;;;;5072461;28;20033;-61
2022/10/18 08:36:55;;;;;;;5.28;3.33;;;;;;;;;;5072283;28;20027;-61
2022/10/18 08:39:20;;;;;;;4.95;3.28;;;;;;;;;;5071971;28;20024;-61
2022/10/18 08:41:48;;;;;;;4.22;3.47;;;;;;;;;;5072351;28;20376;-65
2022/10/18 08:44:17;;;;;;;4.28;3.22;;;;;;;;;;5054448;28;20028;-61
2022/10/18 08:46:54;;;;;;;4.57;3.83;;;;;;;;;;5054211;28;20115;-61
2022/10/18 08:49:27;;;;;;;5.38;3.30;;;;;;;;;;5072391;28;20056;-61
2022/10/18 08:51:53;;;;;;;3.60;3.30;;;;;;;;;;5071205;28;20036;-61
2022/10/18 08:54:28;;;;;;;4.28;3.00;;;;;;;;;;5073432;28;20020;-61
2022/10/18 08:56:59;;;;;;;7.60;3.53;;;;;;;;;;5071319;28;20115;-61
2022/10/18 08:59:26;;;;;;;3.55;2.67;;;;;;;;;;5073877;28;20028;-61
2022/10/18 09:02:16;;;;;;;3.75;3.38;;;;;;;;;;5073321;28;20032;-61
2022/10/18 09:04:53;;;;;;;4.07;3.40;;;;;;;;;;5072788;28;20040;-61
2022/10/18 09:07:22;;;;;;;3.58;3.17;;;;;;;;;;5071539;28;20449;-61
2022/10/18 09:09:53;;;;;;;4.22;3.20;;;;;;;;;;5072024;28;20526;-61
2022/10/18 09:12:19;;;;;;;4.75;3.30;;;;;;;;;;5075801;28;20071;-61
2022/10/18 09:14:55;;;;;;;4.82;3.17;;;;;;;;;;5075346;28;20052;-61
2022/10/18 09:17:21;;;;;;;3.15;2.85;;;;;;;;;;5057739;28;20078;-61
2022/10/18 09:19:54;;;;;;;4.00;3.60;;;;;;;;;;5057790;28;20020;-61
2022/10/18 09:22:24;;;;;;;3.55;3.25;;;;;;;;;;5077020;28;20372;-61
2022/10/18 09:25:08;;;;;;;3.53;3.22;;;;;;;;;;5059122;28;20468;-61
2022/10/18 09:27:40;;;;;;;3.15;2.78;;;;;;;;;;5077466;28;20056;-61
2022/10/18 09:30:16;;;;;;;4.13;3.13;;;;;;;;;;5059249;28;20029;-61
2022/10/18 09:33:00;;;;;;;4.03;2.97;;;;;;;;;;5077239;28;20036;-61
2022/10/18 09:35:27;;;;;;;3.40;3.10;;;;;;;;;;5077026;28;20028;-61
2022/10/18 09:37:58;;;;;;;4.45;2.72;;;;;;;;;;5058869;28;20016;-61
2022/10/18 09:40:23;;;;;;;;;;;;;;;;;;5077359;28;20468;-61
2022/10/18 09:43:07;;;;;;;4.28;2.97;;;;;;;;;;5058709;28;19912;-61
2022/10/18 09:45:39;;;;;;;3.67;3.00;;;;;;;;;;5076791;28;20028;-61
2022/10/18 09:48:13;;;;;;;3.20;2.95;;;;;;;;;;5076469;28;20404;-61
2022/10/18 09:50:41;;;;;;;4.07;3.13;;;;;;;;;;5058398;28;20400;-61
2022/10/18 09:53:06;;;;;;;3.25;2.85;;;;;;;;;;5058528;28;20062;-61
2022/10/18 09:55:54;;;;;;;3.22;2.92;;;;;;;;;;5058427;28;20029;-61
2022/10/18 09:58:21;;;;;;;3.17;2.40;;;;;;;;;;5057799;28;20408;-61
2022/10/18 10:00:47;;;;;;;3.90;3.05;;;;;;;;;;5076558;28;20376;-62
2022/10/18 10:03:16;;;;;;;5.10;2.80;;;;;;;;;;5076229;28;20519;-61
2022/10/18 10:05:44;;;;;;;3.17;2.92;;;;;;;;;;5076444;28;20477;-61
2022/10/18 10:08:09;;;;;;;4.45;3.20;;;;;;;;;;5076412;28;20028;-61
2022/10/18 10:10:37;;;;;;;4.68;3.17;;;;;;;;;;5076051;28;20361;-61
2022/10/18 10:13:05;;;;;;;5.72;3.28;;;;;;;;;;5076321;28;20039;-61
2022/10/18 10:15:31;;;;;;;5.00;3.17;;;;;;;;;;5076335;28;20028;-61
2022/10/18 10:17:59;;;;;;;3.75;2.90;;;;;;;;;;5075980;28;20040;-61
2022/10/18 10:20:31;;;;;;;4.25;3.28;;;;;;;;;;5076221;28;20052;-61
2022/10/18 10:23:04;;;;;;;3.47;3.10;;;;;;;;;;5057248;28;20082;-61
2022/10/18 10:25:34;;;;;;;4.50;3.20;;;;;;;;;;5075865;28;20119;-61
2022/10/18 10:27:59;;;;;;;;;;;;;;;;;;5076520;28;20029;-61
2022/10/18 10:30:35;;;;;;;4.60;3.60;;;;;;;;;;5058101;28;20312;-61
2022/10/18 10:33:01;;;;;;;5.85;3.08;;;;;;;;;;5057788;28;20028;-61
2022/10/18 10:35:29;;;;;;;3.20;2.88;;;;;;;;;;5075933;28;20149;-62
2022/10/18 10:37:55;;;;;;;6.15;2.90;;;;;;;;;;5057640;28;20064;-61
2022/10/18 10:40:22;;;;;;;4.82;2.95;;;;;;;;;;5075560;28;20052;-61
2022/10/18 10:43:05;;;;;;;4.95;3.00;;;;;;;;;;5075797;28;20445;-61
2022/10/18 10:45:35;;;;;;;5.93;3.13;;;;;;;;;;5075728;28;20071;-61
2022/10/18 10:48:03;;;;;;;3.50;2.65;;;;;;;;;;5075711;28;20101;-61
2022/10/18 10:50:29;;;;;;;4.70;3.13;;;;;;;;;;5058031;28;20083;-61
2022/10/18 10:52:55;;;;;;;4.95;3.15;;;;;;;;;;5057507;28;20469;-61
2022/10/18 10:55:27;;;;;;;3.55;3.28;;;;;;;;;;5057337;28;20115;-61
2022/10/18 10:57:53;;;;;;;3.20;2.83;;;;;;;;;;5057293;28;20087;-61
2022/10/18 11:00:41;;;;;;;3.15;2.83;;;;;;;;;;5057666;28;20016;-61
2022/10/18 11:03:12;;;;;;;3.40;3.08;;;;;;;;;;5075380;28;20035;-61
2022/10/18 11:05:41;;;;;;;4.82;3.00;;;;;;;;;;5075024;28;20028;-61
2022/10/18 11:08:09;;;;;;;3.20;2.90;;;;;;;;;;5057479;28;20369;-61
2022/10/18 11:10:37;;;;;;;2.67;2.40;;;;;;;;;;5075160;28;20107;-61
2022/10/18 11:13:07;;;;;;;4.18;3.20;;;;;;;;;;5075171;28;20364;-61
2022/10/18 11:15:35;;;;;;;4.40;2.95;;;;;;;;;;5074847;28;20116;-61
2022/10/18 11:18:13;;;;;;;2.95;2.63;;;;;;;;;;5074792;28;20107;-64
2022/10/18 11:20:40;;;;;;;4.65;3.35;;;;;;;;;;5074685;28;20020;-64
2022/10/18 11:23:16;;;;;;;3.28;2.97;;;;;;;;;;5057194;28;20017;-64
2022/10/18 11:25:53;;;;;;;3.13;2.85;;;;;;;;;;5074896;28;20110;-64
2022/10/18 11:28:28;;;;;;;3.55;3.03;;;;;;;;;;5074881;28;20032;-64
2022/10/18 11:30:54;;;;;;;4.43;2.90;;;;;;;;;;5056567;28;20168;-64
2022/10/18 11:33:25;;;;;;;4.57;3.10;;;;;;;;;;5074793;28;20104;-64
2022/10/18 11:36:12;;;;;;;4.45;3.03;;;;;;;;;;5056506;28;20021;-64
2022/10/18 11:38:40;;;;;;;4.38;2.85;;;;;;;;;;5033616;28;20040;-64
2022/10/18 11:41:18;;;;;;;4.50;2.95;;;;;;;;;;5074602;28;20460;-64
2022/10/18 11:43:55;;;;;;;3.38;3.08;;;;;;;;;;5074555;28;20403;-64
2022/10/18 11:46:26;;;;;;;4.32;3.15;;;;;;;;;;5074261;28;20043;-64
2022/10/18 11:48:58;;;;;;;3.10;2.80;;;;;;;;;;5074454;28;20037;-64
2022/10/18 11:51:31;;;;;;;5.78;2.60;;;;;;;;;;5056850;28;20538;-64
2022/10/18 11:54:15;;;;;;;3.80;2.80;;;;;;;;;;5056291;28;20025;-64
2022/10/18 11:56:41;;;;;;;4.63;2.72;;;;;;;;;;5056741;28;20037;-64
2022/10/18 11:59:27;;;;;;;3.20;2.95;;;;;;;;;;5074018;28;20092;-64
2022/10/18 12:01:58;;;;;;;7.35;2.90;;;;;;;;;;5073949;28;20066;-64
2022/10/18 12:04:26;;;;;;;3.47;2.63;;;;;;;;;;5074486;28;20087;-64
2022/10/18 12:06:53;;;;;;;3.30;2.95;;;;;;;;;;5073874;28;20024;-64
2022/10/18 12:09:18;;;;;;;3.60;2.42;;;;;;;;;;5074147;28;20028;-64
2022/10/18 12:11:50;;;;;;;2.75;2.55;;;;;;;;;;5074054;28;20019;-64
2022/10/18 12:14:23;;;;;;;2.97;2.70;;;;;;;;;;5074098;28;20021;-64
2022/10/18 12:16:48;;;;;;;4.00;3.00;;;;;;;;;;5074085;28;20051;-64
2022/10/18 12:19:22;;;;;;;3.42;3.13;;;;;;;;;;5074354;28;20447;-64
2022/10/18 12:21:48;;;;;;;4.68;3.00;;;;;;;;;;5073984;28;20032;-65
2022/10/18 12:24:17;;;;;;;3.80;2.53;;;;;;;;;;5073711;28;20104;-65
2022/10/18 12:26:43;;;;;;;3.45;2.70;;;;;;;;;;5073566;28;20033;-65
2022/10/18 12:29:27;;;;;;;4.43;2.92;;;;;;;;;;5073664;28;20464;-65
2022/10/18 12:31:56;;;;;;;2.75;2.50;;;;;;;;;;5073050;28;20028;-64
2022/10/18 12:34:23;;;;;;;3.90;2.83;;;;;;;;;;5074144;28;20391;-64
2022/10/18 12:36:52;;;;;;;2.55;2.35;;;;;;;;;;5055612;28;20028;-65
2022/10/18 12:39:21;;;;;;;3.15;2.88;;;;;;;;;;5055666;28;20021;-64
2022/10/18 12:41:47;;;;;;;2.90;2.70;;;;;;;;;;5055673;28;20032;-64
2022/10/18 12:44:15;;;;;;;2.78;2.55;;;;;;;;;;5073253;28;20097;-65
2022/10/18 12:46:45;;;;;;;6.03;2.78;;;;;;;;;;5073267;28;20043;-65
2022/10/18 12:49:12;;;;;;;3.87;2.50;;;;;;;;;;5073667;28;20028;-64
2022/10/18 12:51:56;;;;;;;5.20;2.42;;;;;;;;;;5073337;28;20041;-64
2022/10/18 12:54:27;;;;;;;3.42;2.42;;;;;;;;;;5073475;28;20503;-64
2022/10/18 12:56:52;;;;;;;4.50;2.70;;;;;;;;;;5056530;28;20029;-64
2022/10/18 12:59:18;;;;;;;2.72;2.50;;;;;;;;;;5073646;28;20111;-64
2022/10/18 13:01:49;;;;;;;1.67;1.58;;;;;;;;;;5073305;28;20119;-64
2022/10/18 13:04:27;;;;;;;5.60;2.42;;;;;;;;;;5055370;28;20400;-64
2022/10/18 13:06:56;;;;;;;3.75;2.78;;;;;;;;;;5073556;28;20487;-64
2022/10/18 13:09:21;;;;;;;2.80;2.47;;;;;;;;;;5055293;28;20130;-64
2022/10/18 13:11:46;;;;;;;3.10;2.47;;;;;;;;;;5073170;28;20115;-64
2022/10/18 13:14:38;;;;;;;3.70;2.63;;;;;;;;;;5055882;28;20020;-64
2022/10/18 13:17:28;;;;;;;3.58;2.65;;;;;;;;;;5052388;28;20051;-64
2022/10/18 13:20:21;;;;;;;4.50;2.67;;;;;;;;;;5072965;28;20491;-64
2022/10/18 13:22:53;;;;;;;3.80;2.80;;;;;;;;;;5069312;28;20132;-64
2022/10/18 13:25:20;;;;;;;2.45;2.08;;;;;;;;;;5055221;28;20030;-64
2022/10/18 13:27:53;;;;;;;6.30;2.67;;;;;;;;;;5055101;28;20013;-64
2022/10/18 13:30:26;;;;;;;5.93;2.83;;;;;;;;;;5073367;28;20040;-64
2022/10/18 13:32:58;;;;;;;5.47;2.58;;;;;;;;;;5072857;28;20487;-64
2022/10/18 13:35:42;;;;;;;4.57;3.03;;;;;;;;;;5072917;28;20029;-64
2022/10/18 13:38:27;;;;;;;3.97;3.13;;;;;;;;;;5072770;28;20274;-65
2022/10/18 13:41:07;;;;;;;3.13;2.90;;;;;;;;;;5073482;28;20513;-65
2022/10/18 13:43:51;;;;;;;2.78;2.40;;;;;;;;;;5073489;28;20031;-64
2022/10/18 13:46:32;;;;;;;5.00;2.58;;;;;;;;;;5073205;28;20037;-65
2022/10/18 13:48:59;;;;;;;4.70;2.85;;;;;;;;;;5073181;28;20416;-64
2022/10/18 13:51:24;;;;;;;3.88;2.83;;;;;;;;;;5072774;28;20538;-65
2022/10/18 13:54:05;;;;;;;3.13;2.88;;;;;;;;;;5054739;28;20032;-65
2022/10/18 13:56:37;;;;;;;3.15;2.83;;;;;;;;;;5055507;28;20074;-64
2022/10/18 13:59:14;;;;;;;3.95;2.80;;;;;;;;;;5076341;28;20068;-65
2022/10/18 14:04:24;;;;;;;5.57;2.78;;;;;;;;;;5080131;23;20057;-67
2022/10/18 14:06:50;;;;;;;3.28;3.05;;;;;;;;;;5060951;22;20098;-64
2022/10/18 14:09:31;;;;;;;2.90;2.67;;;;;;;;;;5140597;22;20051;-67
2022/10/18 14:15:07;;;;;;;3.05;2.85;;;;;;;;;;5031777;28;20458;-67
2022/10/18 14:17:55;;;;;;;3.03;2.75;;;;;;;;;;5063080;22;20055;-64
2022/10/18 14:20:59;;;;;;;3.30;3.00;;;;;;;;;;5121078;22;20051;-64
2022/10/18 14:23:30;;;;;;;3.33;3.03;;;;;;;;;;5108263;22;20418;-64
2022/10/18 14:26:27;;;;;;;5.93;3.75;;;;;;;;;;5093291;22;20143;-64
2022/10/18 14:29:06;;;;;;;3.75;3.22;;;;;;;;;;5065246;28;20429;-67
2022/10/18 14:31:33;;;;;;;4.85;3.40;;;;;;;;;;5074256;28;20043;-64
2022/10/18 14:33:58;;;;;;;3.33;3.00;;;;;;;;;;5074986;28;20020;-64
2022/10/18 14:36:25;;;;;;;8.07;5.13;;;;;;;;;;5074919;28;20031;-64
2022/10/18 14:38:55;;;;;;;9.82;6.60;;;;;;;;;;5075255;28;20460;-64
2022/10/18 14:41:20;;;;;;;7.88;4.82;;;;;;;;;;5074060;28;20494;-64
2022/10/18 14:43:47;;;;;;;4.93;4.43;;;;;;;;;;5055382;28;20036;-64
2022/10/18 14:46:15;;;;;;;8.32;4.55;;;;;;;;;;5055868;28;20468;-64
2022/10/18 14:48:40;;;;;;;8.20;4.82;;;;;;;;;;5056418;28;20048;-64
2022/10/18 14:51:08;;;;;;;6.10;3.80;;;;;;;;;;5074858;28;20087;-64
2022/10/18 14:53:37;;;;;;;7.18;5.22;;;;;;;;;;5074701;28;20016;-64